Time;durP1;ratioP1;P1;durP2;ratioP2;P2;SDS_P1;SDS_P2;PMS_P1;PMS_P2;Temp;Humidity;BMP_temperature;BMP_pressure;BME280_temperature;BME280_humidity;BME280_pressure;Samples;Min_cycle;Max_cycle;Signal;HPM_P1;HPM_P2
2023/04/25 00:00:48;;;;;;;26.83;3.53;;;;;;;;;;4957186;28;92461;-76
2023/04/25 00:03:14;;;;;;;19.60;3.40;;;;;;;;;;4974934;28;93586;-75
2023/04/25 00:05:41;;;;;;;12.73;3.17;;;;;;;;;;4977876;28;93345;-75
2023/04/25 00:08:07;;;;;;;16.98;4.43;;;;;;;;;;4974934;28;93563;-76
2023/04/25 00:10:34;;;;;;;20.58;3.50;;;;;;;;;;4961339;28;93137;-76
2023/04/25 00:13:02;;;;;;;23.55;3.17;;;;;;;;;;4956323;28;92512;-75
2023/04/25 00:15:32;;;;;;;15.13;3.88;;;;;;;;;;4956680;28;94271;-75
2023/04/25 00:17:58;;;;;;;21.58;3.75;;;;;;;;;;4971934;28;94438;-75
2023/04/25 00:20:24;;;;;;;19.90;4.85;;;;;;;;;;4974558;28;92624;-75
2023/04/25 00:22:53;;;;;;;18.35;3.72;;;;;;;;;;4953790;28;94797;-75
2023/04/25 00:25:19;;;;;;;18.52;4.00;;;;;;;;;;4954943;28;93643;-75
2023/04/25 00:27:45;;;;;;;22.55;3.90;;;;;;;;;;4958861;28;93235;-75
2023/04/25 00:30:12;;;;;;;24.25;3.78;;;;;;;;;;4972797;28;93524;-75
2023/04/25 00:32:38;;;;;;;23.33;4.15;;;;;;;;;;4972848;28;92659;-75
2023/04/25 00:35:05;;;;;;;23.23;3.53;;;;;;;;;;4973497;28;93300;-75
2023/04/25 00:37:32;;;;;;;26.42;4.75;;;;;;;;;;4971648;28;93753;-75
2023/04/25 00:39:58;;;;;;;23.27;3.95;;;;;;;;;;4956444;28;92452;-75
2023/04/25 00:42:25;;;;;;;16.85;4.13;;;;;;;;;;4971086;28;93957;-74
2023/04/25 00:44:52;;;;;;;26.50;3.83;;;;;;;;;;4961283;28;94498;-74
2023/04/25 00:47:18;;;;;;;20.75;3.67;;;;;;;;;;4964895;28;94965;-74
2023/04/25 00:49:44;;;;;;;34.45;4.97;;;;;;;;;;4962952;28;96720;-74
2023/04/25 00:52:11;;;;;;;18.92;4.30;;;;;;;;;;4971285;28;92542;-75
2023/04/25 00:54:37;;;;;;;19.50;4.45;;;;;;;;;;4971078;28;92874;-74
2023/04/25 00:57:04;;;;;;;18.98;3.78;;;;;;;;;;4970051;28;93122;-74
2023/04/25 00:59:30;;;;;;;25.95;3.97;;;;;;;;;;4974396;28;92468;-74
2023/04/25 01:01:57;;;;;;;17.10;4.22;;;;;;;;;;4973578;28;94429;-75
2023/04/25 01:04:24;;;;;;;23.30;3.42;;;;;;;;;;4985583;28;92794;-75
2023/04/25 01:06:51;;;;;;;16.30;3.78;;;;;;;;;;4963934;28;92579;-75
2023/04/25 01:09:17;;;;;;;16.38;3.90;;;;;;;;;;4974120;28;93134;-75
2023/04/25 01:11:43;;;;;;;16.55;3.67;;;;;;;;;;4975562;28;96886;-75
2023/04/25 01:14:10;;;;;;;21.02;3.45;;;;;;;;;;4973824;28;95521;-75
2023/04/25 01:16:36;;;;;;;13.25;3.28;;;;;;;;;;4979745;28;94442;-74
2023/04/25 01:19:08;;;;;;;29.17;4.03;;;;;;;;;;4985424;28;92814;-74
2023/04/25 01:21:35;;;;;;;14.98;3.28;;;;;;;;;;4968295;28;93584;-74
2023/04/25 01:24:01;;;;;;;13.70;3.60;;;;;;;;;;4954757;28;93468;-75
2023/04/25 01:26:28;;;;;;;20.02;3.80;;;;;;;;;;4956866;28;92732;-74
2023/04/25 01:28:54;;;;;;;17.35;3.58;;;;;;;;;;4969725;28;93122;-74
2023/04/25 01:31:21;;;;;;;18.13;3.40;;;;;;;;;;4967615;28;93809;-75
2023/04/25 01:33:47;;;;;;;21.90;3.85;;;;;;;;;;4979130;28;92682;-75
2023/04/25 01:36:15;;;;;;;16.33;3.28;;;;;;;;;;4967612;28;97910;-74
2023/04/25 01:38:41;;;;;;;15.73;3.67;;;;;;;;;;4961460;28;92682;-74
2023/04/25 01:41:08;;;;;;;25.60;3.97;;;;;;;;;;4974644;28;93501;-74
2023/04/25 01:43:35;;;;;;;22.33;3.92;;;;;;;;;;4958705;28;93257;-74
2023/04/25 01:46:01;;;;;;;23.50;3.58;;;;;;;;;;4970929;28;92727;-75
2023/04/25 01:48:28;;;;;;;24.08;4.55;;;;;;;;;;4971462;28;93213;-74
2023/04/25 01:50:54;;;;;;;17.02;3.28;;;;;;;;;;4972119;28;93846;-74
2023/04/25 01:53:20;;;;;;;26.02;4.50;;;;;;;;;;4974595;28;91868;-75
2023/04/25 01:55:47;;;;;;;18.42;3.95;;;;;;;;;;4975306;28;92552;-74
2023/04/25 01:58:13;;;;;;;15.25;3.72;;;;;;;;;;4964145;28;92508;-74
2023/04/25 02:00:40;;;;;;;26.30;4.20;;;;;;;;;;4956078;28;94779;-74
2023/04/25 02:03:08;;;;;;;18.05;4.22;;;;;;;;;;4960111;28;93333;-74
2023/04/25 02:05:36;;;;;;;14.93;3.67;;;;;;;;;;4957406;28;92432;-75
2023/04/25 02:08:03;;;;;;;19.75;3.83;;;;;;;;;;4957292;28;92389;-75
2023/04/25 02:10:29;;;;;;;23.55;4.28;;;;;;;;;;4956818;28;93523;-74
2023/04/25 02:12:56;;;;;;;14.35;3.50;;;;;;;;;;4964657;28;92444;-74
2023/04/25 02:15:23;;;;;;;19.13;3.53;;;;;;;;;;4976046;28;94105;-75
2023/04/25 02:17:49;;;;;;;18.50;4.15;;;;;;;;;;4977049;28;91788;-75
2023/04/25 02:20:15;;;;;;;19.40;4.05;;;;;;;;;;4976580;28;92574;-74
2023/04/25 02:22:42;;;;;;;16.05;3.72;;;;;;;;;;4958807;28;93321;-75
2023/04/25 02:25:08;;;;;;;25.13;4.32;;;;;;;;;;4970409;28;94861;-75
2023/04/25 02:27:35;;;;;;;21.85;3.88;;;;;;;;;;4967893;28;95475;-75
2023/04/25 02:30:01;;;;;;;20.70;3.42;;;;;;;;;;4963406;28;94463;-74
2023/04/25 02:32:28;;;;;;;17.17;3.90;;;;;;;;;;4967749;28;92651;-75
2023/04/25 02:34:54;;;;;;;20.33;3.67;;;;;;;;;;4974619;28;94309;-74
2023/04/25 02:37:20;;;;;;;20.98;3.85;;;;;;;;;;4976124;28;94603;-75
2023/04/25 02:39:47;;;;;;;21.83;4.10;;;;;;;;;;4972514;28;93165;-75
2023/04/25 02:42:13;;;;;;;20.00;3.72;;;;;;;;;;4971914;28;93575;-74
2023/04/25 02:44:39;;;;;;;13.98;2.90;;;;;;;;;;4965942;28;92717;-72
2023/04/25 02:47:06;;;;;;;23.83;3.83;;;;;;;;;;4974580;28;93164;-74
2023/04/25 02:49:32;;;;;;;15.20;3.47;;;;;;;;;;4967254;28;96319;-75
2023/04/25 02:51:58;;;;;;;22.30;3.40;;;;;;;;;;4972878;28;93050;-75
2023/04/25 02:54:25;;;;;;;24.00;4.55;;;;;;;;;;4962462;28;93205;-74
2023/04/25 02:56:51;;;;;;;21.27;4.60;;;;;;;;;;4971129;28;94474;-75
2023/04/25 02:59:17;;;;;;;14.77;4.18;;;;;;;;;;4974525;28;92532;-75
2023/04/25 03:01:43;;;;;;;14.00;3.85;;;;;;;;;;4970683;28;94558;-75
2023/04/25 03:04:10;;;;;;;19.52;3.72;;;;;;;;;;4967312;28;92575;-75
2023/04/25 03:06:36;;;;;;;25.30;3.55;;;;;;;;;;4974766;28;93357;-74
2023/04/25 03:09:03;;;;;;;20.40;4.20;;;;;;;;;;4973760;28;93498;-75
2023/04/25 03:11:30;;;;;;;19.70;4.20;;;;;;;;;;4974145;28;92802;-75
2023/04/25 03:13:56;;;;;;;19.38;4.07;;;;;;;;;;4974133;28;94860;-75
2023/04/25 03:16:22;;;;;;;18.10;3.92;;;;;;;;;;4968435;28;93418;-75
2023/04/25 03:18:50;;;;;;;18.58;3.90;;;;;;;;;;4967139;28;93458;-75
2023/04/25 03:21:16;;;;;;;27.98;4.35;;;;;;;;;;4973635;28;93185;-76
2023/04/25 03:23:43;;;;;;;20.92;3.85;;;;;;;;;;4972784;28;92477;-75
2023/04/25 03:26:09;;;;;;;19.65;4.00;;;;;;;;;;4974439;28;93152;-75
2023/04/25 03:28:35;;;;;;;22.13;3.75;;;;;;;;;;4973117;28;94398;-76
2023/04/25 03:31:02;;;;;;;18.38;4.65;;;;;;;;;;4974466;28;91814;-75
2023/04/25 03:33:28;;;;;;;16.92;3.70;;;;;;;;;;4970618;28;92504;-75
2023/04/25 03:35:54;;;;;;;20.17;4.32;;;;;;;;;;4973972;28;93303;-75
2023/04/25 03:38:21;;;;;;;14.80;3.78;;;;;;;;;;4964461;28;94965;-75
2023/04/25 03:40:47;;;;;;;18.27;4.05;;;;;;;;;;4973594;28;95868;-75
2023/04/25 03:43:13;;;;;;;14.68;3.50;;;;;;;;;;4968956;28;93457;-75
2023/04/25 03:45:40;;;;;;;13.85;3.40;;;;;;;;;;4968546;28;94232;-75
2023/04/25 03:48:06;;;;;;;13.38;3.70;;;;;;;;;;4962422;28;93217;-75
2023/04/25 03:50:33;;;;;;;18.80;3.65;;;;;;;;;;4963439;28;94436;-75
2023/04/25 03:52:59;;;;;;;12.02;3.63;;;;;;;;;;4966831;28;93367;-75
2023/04/25 03:55:25;;;;;;;15.10;3.50;;;;;;;;;;4970825;28;92823;-75
2023/04/25 03:57:52;;;;;;;18.35;3.65;;;;;;;;;;4972366;28;92428;-75
2023/04/25 04:00:18;;;;;;;18.13;4.03;;;;;;;;;;4972169;28;92990;-75
2023/04/25 04:02:44;;;;;;;16.33;3.53;;;;;;;;;;4968583;28;96684;-75
2023/04/25 04:05:11;;;;;;;22.05;3.72;;;;;;;;;;4975718;28;92620;-74
2023/04/25 04:07:39;;;;;;;12.88;3.35;;;;;;;;;;4973151;28;93441;-75
2023/04/25 04:10:07;;;;;;;18.27;3.58;;;;;;;;;;4972274;28;92582;-75
2023/04/25 04:12:33;;;;;;;16.02;3.42;;;;;;;;;;4972815;28;93059;-75
2023/04/25 04:14:59;;;;;;;18.83;3.80;;;;;;;;;;4974352;28;94403;-75
2023/04/25 04:17:26;;;;;;;13.70;3.10;;;;;;;;;;4968972;28;92727;-75
2023/04/25 04:19:52;;;;;;;20.00;3.55;;;;;;;;;;4973697;28;94873;-75
2023/04/25 04:22:18;;;;;;;17.42;3.65;;;;;;;;;;4970081;28;94594;-75
2023/04/25 04:24:46;;;;;;;13.48;3.35;;;;;;;;;;4975522;28;92523;-75
2023/04/25 04:27:12;;;;;;;21.48;3.40;;;;;;;;;;4964886;28;96855;-75
2023/04/25 04:29:39;;;;;;;20.55;3.95;;;;;;;;;;4967042;28;92497;-75
2023/04/25 04:32:05;;;;;;;20.48;3.30;;;;;;;;;;4971807;28;93220;-75
2023/04/25 04:34:31;;;;;;;14.15;3.00;;;;;;;;;;4971168;28;94641;-75
2023/04/25 04:36:58;;;;;;;18.75;3.35;;;;;;;;;;4967930;28;92448;-75
2023/04/25 04:39:24;;;;;;;15.25;3.42;;;;;;;;;;4963107;28;92833;-75
2023/04/25 04:41:51;;;;;;;18.95;4.63;;;;;;;;;;4973137;28;93573;-75
2023/04/25 04:44:17;;;;;;;19.05;3.85;;;;;;;;;;4973695;28;91785;-75
2023/04/25 04:46:44;;;;;;;25.63;3.38;;;;;;;;;;4971648;28;93084;-75
2023/04/25 04:49:12;;;;;;;11.60;2.85;;;;;;;;;;4974650;28;92546;-74
2023/04/25 04:51:38;;;;;;;10.65;2.78;;;;;;;;;;4967821;28;96368;-75
2023/04/25 04:54:04;;;;;;;11.90;2.80;;;;;;;;;;4965143;28;93912;-75
2023/04/25 04:56:31;;;;;;;19.85;3.35;;;;;;;;;;4972495;28;92476;-75
2023/04/25 04:58:57;;;;;;;18.63;2.80;;;;;;;;;;4971426;28;93052;-75
2023/04/25 05:01:24;;;;;;;14.02;2.97;;;;;;;;;;4962318;28;94495;-75
2023/04/25 05:03:51;;;;;;;14.82;2.67;;;;;;;;;;4969811;28;92886;-75
2023/04/25 05:06:18;;;;;;;15.13;3.20;;;;;;;;;;4971947;28;93624;-75
2023/04/25 05:08:45;;;;;;;14.05;3.03;;;;;;;;;;4976825;28;93617;-75
2023/04/25 05:11:11;;;;;;;20.88;2.65;;;;;;;;;;4964211;28;92668;-73
2023/04/25 05:13:37;;;;;;;11.18;3.60;;;;;;;;;;4969530;28;93471;-75
2023/04/25 05:16:04;;;;;;;9.85;2.40;;;;;;;;;;4970427;28;96270;-74
2023/04/25 05:18:30;;;;;;;14.18;2.25;;;;;;;;;;4972615;28;96563;-74
2023/04/25 05:20:56;;;;;;;18.50;3.45;;;;;;;;;;4964519;28;93560;-74
2023/04/25 05:23:23;;;;;;;11.73;2.97;;;;;;;;;;4972041;28;92782;-75
2023/04/25 05:25:49;;;;;;;18.52;2.78;;;;;;;;;;4971057;28;93393;-75
2023/04/25 05:28:15;;;;;;;12.25;2.90;;;;;;;;;;4970824;28;93440;-74
2023/04/25 05:30:41;;;;;;;15.88;2.90;;;;;;;;;;4966402;28;92586;-75
2023/04/25 05:33:08;;;;;;;12.52;2.40;;;;;;;;;;4972398;28;92791;-74
2023/04/25 05:35:35;;;;;;;10.40;2.30;;;;;;;;;;4970310;28;92643;-74
2023/04/25 05:38:01;;;;;;;11.85;2.80;;;;;;;;;;4971016;28;94279;-74
2023/04/25 05:40:27;;;;;;;13.38;2.97;;;;;;;;;;4968232;28;97211;-74
2023/04/25 05:42:54;;;;;;;10.73;3.08;;;;;;;;;;4957310;28;93929;-75
2023/04/25 05:45:20;;;;;;;15.50;2.63;;;;;;;;;;4971838;28;94220;-75
2023/04/25 05:47:47;;;;;;;14.32;2.60;;;;;;;;;;4971389;28;94499;-75
2023/04/25 05:50:13;;;;;;;14.50;2.20;;;;;;;;;;4968882;28;92537;-74
2023/04/25 05:52:39;;;;;;;17.70;2.35;;;;;;;;;;4968478;28;94093;-74
2023/04/25 05:55:06;;;;;;;10.40;2.30;;;;;;;;;;4968258;28;92464;-75
2023/04/25 05:57:32;;;;;;;14.75;2.70;;;;;;;;;;4968955;28;94200;-75
2023/04/25 05:59:58;;;;;;;7.03;1.83;;;;;;;;;;4966246;28;93647;-75
2023/04/25 06:02:25;;;;;;;18.55;2.30;;;;;;;;;;4973839;28;92418;-75
2023/04/25 06:04:51;;;;;;;11.55;3.25;;;;;;;;;;4972970;28;94945;-74
2023/04/25 06:07:19;;;;;;;11.13;2.10;;;;;;;;;;4973342;28;94503;-74
2023/04/25 06:09:46;;;;;;;14.35;2.28;;;;;;;;;;4973548;28;92431;-74
2023/04/25 06:12:12;;;;;;;17.00;2.50;;;;;;;;;;4958555;28;94317;-75
2023/04/25 06:14:38;;;;;;;13.15;2.03;;;;;;;;;;4960810;28;92476;-75
2023/04/25 06:17:08;;;;;;;8.45;1.92;;;;;;;;;;4973796;28;93554;-75
2023/04/25 06:19:35;;;;;;;8.00;1.90;;;;;;;;;;4974562;28;93696;-74
2023/04/25 06:22:02;;;;;;;7.63;2.20;;;;;;;;;;4964658;28;92000;-75
2023/04/25 06:24:28;;;;;;;15.23;2.22;;;;;;;;;;4957036;28;92421;-75
2023/04/25 06:26:54;;;;;;;7.25;2.22;;;;;;;;;;4963831;28;93805;-75
2023/04/25 06:29:21;;;;;;;11.35;1.90;;;;;;;;;;4970281;28;95128;-74
2023/04/25 06:31:47;;;;;;;16.33;2.33;;;;;;;;;;4965239;28;94386;-75
2023/04/25 06:34:13;;;;;;;14.75;1.85;;;;;;;;;;4965928;28;94823;-76
2023/04/25 06:36:41;;;;;;;10.35;2.00;;;;;;;;;;4968526;28;93262;-75
2023/04/25 06:39:08;;;;;;;9.93;1.95;;;;;;;;;;4973127;28;94022;-76
2023/04/25 06:41:35;;;;;;;10.32;2.35;;;;;;;;;;4972335;28;92499;-76
2023/04/25 06:44:01;;;;;;;7.97;1.80;;;;;;;;;;4967750;28;93159;-77
2023/04/25 06:46:28;;;;;;;19.38;2.70;;;;;;;;;;4966277;28;92738;-76
2023/04/25 06:48:54;;;;;;;15.75;2.15;;;;;;;;;;4969847;28;94330;-78
2023/04/25 06:51:20;;;;;;;9.13;1.88;;;;;;;;;;4974076;28;93269;-75
2023/04/25 06:53:49;;;;;;;13.93;2.05;;;;;;;;;;4966345;28;97136;-77
2023/04/25 06:56:16;;;;;;;9.02;2.30;;;;;;;;;;4969914;28;93405;-77
2023/04/25 06:58:42;;;;;;;10.10;1.80;;;;;;;;;;4967995;28;94731;-76
2023/04/25 07:01:08;;;;;;;6.65;1.75;;;;;;;;;;4962659;28;92873;-77
2023/04/25 07:03:37;;;;;;;13.52;1.92;;;;;;;;;;4960347;28;94232;-76
2023/04/25 07:06:03;;;;;;;13.27;1.80;;;;;;;;;;4973824;28;93623;-75
2023/04/25 07:08:30;;;;;;;9.15;1.95;;;;;;;;;;4973308;28;92908;-75
2023/04/25 07:10:56;;;;;;;14.50;1.98;;;;;;;;;;4968976;28;94237;-75
2023/04/25 07:13:22;;;;;;;11.52;2.17;;;;;;;;;;4972122;28;93716;-76
2023/04/25 07:15:49;;;;;;;9.18;1.70;;;;;;;;;;4974913;28;93370;-75
2023/04/25 07:18:15;;;;;;;7.82;1.42;;;;;;;;;;4973362;28;94871;-76
2023/04/25 07:20:42;;;;;;;7.50;1.60;;;;;;;;;;4968573;28;94723;-73
2023/04/25 07:23:08;;;;;;;14.18;2.08;;;;;;;;;;4965265;28;93124;-76
2023/04/25 07:25:35;;;;;;;13.52;1.80;;;;;;;;;;4971060;28;93211;-76
2023/04/25 07:28:01;;;;;;;12.25;2.35;;;;;;;;;;4970509;28;92636;-75
2023/04/25 07:30:27;;;;;;;11.93;1.98;;;;;;;;;;4964787;28;93024;-75
2023/04/25 07:32:54;;;;;;;10.70;2.20;;;;;;;;;;4960876;28;93573;-75
2023/04/25 07:35:20;;;;;;;8.18;1.85;;;;;;;;;;4973094;28;92192;-75
2023/04/25 07:37:47;;;;;;;10.77;1.60;;;;;;;;;;4970193;28;92523;-76
2023/04/25 07:40:15;;;;;;;5.43;1.40;;;;;;;;;;4964212;28;93476;-76
2023/04/25 07:42:41;;;;;;;16.90;1.70;;;;;;;;;;4972076;28;95010;-76
2023/04/25 07:45:09;;;;;;;11.93;1.73;;;;;;;;;;4966363;28;93352;-76
2023/04/25 07:47:35;;;;;;;8.30;1.40;;;;;;;;;;4974750;28;92533;-77
2023/04/25 07:50:03;;;;;;;11.75;1.48;;;;;;;;;;4971125;28;93096;-76
2023/04/25 07:52:29;;;;;;;7.40;1.50;;;;;;;;;;4972632;28;94562;-78
2023/04/25 07:54:56;;;;;;;9.25;1.48;;;;;;;;;;4968884;28;92563;-77
2023/04/25 07:57:24;;;;;;;7.65;1.83;;;;;;;;;;4974520;28;92517;-77
2023/04/25 07:59:50;;;;;;;7.38;1.75;;;;;;;;;;4975438;28;92716;-76
2023/04/25 08:02:16;;;;;;;12.20;2.13;;;;;;;;;;4966146;28;92490;-76
2023/04/25 08:04:43;;;;;;;13.82;1.95;;;;;;;;;;4963151;28;93663;-76
2023/04/25 08:07:09;;;;;;;11.70;1.92;;;;;;;;;;4969962;28;95407;-77
2023/04/25 08:09:36;;;;;;;9.32;1.98;;;;;;;;;;4974419;28;96231;-77
2023/04/25 08:12:03;;;;;;;9.48;1.52;;;;;;;;;;4957253;28;92448;-77
2023/04/25 08:14:35;;;;;;;11.15;1.20;;;;;;;;;;4955344;28;92429;-76
2023/04/25 08:17:03;;;;;;;12.02;2.10;;;;;;;;;;4963278;28;93086;-77
2023/04/25 08:19:30;;;;;;;9.63;1.60;;;;;;;;;;4973672;28;93518;-76
2023/04/25 08:21:56;;;;;;;5.95;1.52;;;;;;;;;;4968784;28;92442;-77
2023/04/25 08:24:23;;;;;;;7.88;1.55;;;;;;;;;;4974684;28;92723;-78
2023/04/25 08:26:49;;;;;;;10.35;1.92;;;;;;;;;;4974753;28;92503;-77
2023/04/25 08:29:15;;;;;;;46.42;2.95;;;;;;;;;;4970484;28;94590;-77
2023/04/25 08:31:42;;;;;;;12.52;2.00;;;;;;;;;;4962159;28;95839;-77
2023/04/25 08:34:08;;;;;;;11.82;1.90;;;;;;;;;;4974866;28;92523;-76
2023/04/25 08:36:34;;;;;;;6.32;1.63;;;;;;;;;;4967207;28;93267;-73
2023/04/25 08:39:05;;;;;;;11.07;1.50;;;;;;;;;;4974685;28;94626;-75
2023/04/25 08:41:31;;;;;;;11.57;1.48;;;;;;;;;;4966168;28;92606;-75
2023/04/25 08:44:00;;;;;;;13.65;1.45;;;;;;;;;;4961578;28;94174;-76
2023/04/25 08:46:26;;;;;;;3.85;1.10;;;;;;;;;;4959486;28;92472;-76
2023/04/25 08:48:57;;;;;;;8.98;1.42;;;;;;;;;;4974527;28;93100;-76
2023/04/25 08:51:25;;;;;;;5.93;1.20;;;;;;;;;;4973244;28;93365;-76
2023/04/25 08:53:52;;;;;;;7.80;1.02;;;;;;;;;;4972557;28;92471;-75
2023/04/25 08:56:23;;;;;;;2.83;0.73;;;;;;;;;;4956032;28;94777;-76
2023/04/25 08:58:50;;;;;;;5.57;1.33;;;;;;;;;;4954338;28;92486;-75
2023/04/25 09:01:18;;;;;;;14.95;1.88;;;;;;;;;;4968473;28;92580;-76
2023/04/25 09:03:44;;;;;;;9.77;1.33;;;;;;;;;;4972185;28;94366;-77
2023/04/25 09:06:11;;;;;;;8.18;1.65;;;;;;;;;;4976231;28;93543;-76
2023/04/25 09:08:39;;;;;;;10.35;1.45;;;;;;;;;;4974670;28;94412;-76
2023/04/25 09:11:07;;;;;;;8.80;1.08;;;;;;;;;;4971213;28;93731;-76
2023/04/25 09:13:33;;;;;;;3.60;1.05;;;;;;;;;;4965949;28;93082;-77
2023/04/25 09:16:00;;;;;;;10.13;1.13;;;;;;;;;;4974670;28;93395;-76
2023/04/25 09:18:27;;;;;;;9.40;1.40;;;;;;;;;;4972899;28;93429;-76
2023/04/25 09:20:57;;;;;;;5.03;1.27;;;;;;;;;;4967843;28;94802;-76
2023/04/25 09:23:29;;;;;;;11.25;1.80;;;;;;;;;;4963793;28;96576;-76
2023/04/25 09:25:55;;;;;;;7.68;1.25;;;;;;;;;;4960161;28;93624;-76
2023/04/25 09:28:23;;;;;;;9.60;1.50;;;;;;;;;;4975629;28;93270;-76
2023/04/25 09:30:49;;;;;;;18.40;1.73;;;;;;;;;;4972725;28;93454;-76
2023/04/25 09:33:15;;;;;;;10.73;1.35;;;;;;;;;;4973020;28;92575;-76
2023/04/25 09:35:43;;;;;;;13.05;1.80;;;;;;;;;;4974131;28;93131;-76
2023/04/25 09:38:11;;;;;;;6.13;1.52;;;;;;;;;;4973306;28;93192;-76
2023/04/25 09:40:45;;;;;;;6.13;1.20;;;;;;;;;;4970644;28;92502;-76
2023/04/25 09:43:21;;;;;;;13.18;2.35;;;;;;;;;;4974162;28;93126;-76
2023/04/25 09:45:48;;;;;;;8.57;1.20;;;;;;;;;;4971755;28;95961;-76
2023/04/25 09:48:21;;;;;;;5.03;1.33;;;;;;;;;;4973209;28;92808;-77
2023/04/25 09:51:03;;;;;;;5.53;1.63;;;;;;;;;;4975048;28;94647;-78
2023/04/25 09:53:29;;;;;;;13.05;2.38;;;;;;;;;;4973339;28;92662;-76
2023/04/25 09:55:56;;;;;;;10.25;1.75;;;;;;;;;;4977349;28;93520;-76
2023/04/25 09:58:24;;;;;;;12.15;1.70;;;;;;;;;;4973964;28;93473;-77
2023/04/25 10:00:51;;;;;;;7.22;1.38;;;;;;;;;;4976446;28;92446;-77
2023/04/25 10:03:17;;;;;;;7.28;1.40;;;;;;;;;;4975990;28;94499;-77
2023/04/25 10:05:44;;;;;;;6.72;1.23;;;;;;;;;;4976951;28;94450;-77
2023/04/25 10:08:11;;;;;;;6.93;1.40;;;;;;;;;;4976076;28;92551;-77
2023/04/25 10:10:40;;;;;;;6.93;1.38;;;;;;;;;;4973100;28;94829;-77
2023/04/25 10:13:06;;;;;;;9.35;1.42;;;;;;;;;;4978495;28;94456;-77
2023/04/25 10:15:35;;;;;;;8.35;1.63;;;;;;;;;;4977173;28;93168;-77
2023/04/25 10:18:06;;;;;;;8.25;1.13;;;;;;;;;;4971052;28;93402;-77
2023/04/25 10:20:32;;;;;;;10.52;2.15;;;;;;;;;;4964455;28;92589;-77
2023/04/25 10:23:06;;;;;;;4.18;1.33;;;;;;;;;;4975559;28;93101;-81
2023/04/25 10:25:33;;;;;;;6.78;1.20;;;;;;;;;;4976761;28;94436;-76
2023/04/25 10:28:00;;;;;;;6.75;0.88;;;;;;;;;;4974068;28;93441;-76
2023/04/25 10:30:27;;;;;;;4.88;1.50;;;;;;;;;;4965673;28;92900;-78
2023/04/25 10:32:54;;;;;;;6.88;1.52;;;;;;;;;;4980281;28;92550;-77
2023/04/25 10:35:27;;;;;;;10.13;1.20;;;;;;;;;;4975692;28;94994;-77
2023/04/25 10:38:04;;;;;;;6.30;1.02;;;;;;;;;;4969900;28;94977;-77
2023/04/25 10:40:31;;;;;;;5.30;1.10;;;;;;;;;;4971087;28;92525;-77
2023/04/25 10:43:18;;;;;;;8.43;1.42;;;;;;;;;;4976800;28;94166;-77
2023/04/25 10:45:51;;;;;;;11.80;1.45;;;;;;;;;;4971407;28;92463;-78
2023/04/25 10:48:30;;;;;;;8.85;1.13;;;;;;;;;;4973911;28;92549;-77
2023/04/25 10:51:09;;;;;;;8.20;1.38;;;;;;;;;;4972764;28;93148;-75
2023/04/25 10:53:35;;;;;;;6.65;1.33;;;;;;;;;;4959264;28;92837;-75
2023/04/25 10:56:21;;;;;;;11.45;1.45;;;;;;;;;;4969104;28;93368;-75
2023/04/25 10:58:47;;;;;;;13.10;1.30;;;;;;;;;;4976004;28;93437;-74
2023/04/25 11:01:21;;;;;;;12.48;1.80;;;;;;;;;;4974846;28;95303;-76
2023/04/25 11:03:50;;;;;;;6.95;1.23;;;;;;;;;;4975426;28;95282;-75
2023/04/25 11:06:16;;;;;;;8.25;1.50;;;;;;;;;;4976836;28;93408;-78
2023/04/25 11:08:50;;;;;;;4.68;1.20;;;;;;;;;;4976642;28;92815;-77
2023/04/25 11:11:17;;;;;;;5.10;1.40;;;;;;;;;;4976422;28;93170;-77
2023/04/25 11:13:44;;;;;;;3.70;1.13;;;;;;;;;;4971518;28;94934;-76
2023/04/25 11:16:11;;;;;;;9.60;1.38;;;;;;;;;;4979665;28;92471;-74
2023/04/25 11:18:40;;;;;;;8.73;1.60;;;;;;;;;;5000756;28;93052;-73
2023/04/25 11:21:07;;;;;;;7.30;1.30;;;;;;;;;;4993506;28;91955;-74
2023/04/25 11:23:33;;;;;;;6.93;1.75;;;;;;;;;;4985102;28;91788;-73
2023/04/25 11:26:01;;;;;;;12.52;1.23;;;;;;;;;;4999127;28;94566;-72
2023/04/25 11:28:27;;;;;;;8.98;2.00;;;;;;;;;;4997454;28;92451;-74
2023/04/25 11:30:53;;;;;;;8.95;1.83;;;;;;;;;;4983917;28;92212;-73
2023/04/25 11:33:23;;;;;;;5.65;1.10;;;;;;;;;;4997472;28;92520;-72
2023/04/25 11:35:50;;;;;;;8.23;1.35;;;;;;;;;;4995952;28;91931;-75
2023/04/25 11:38:16;;;;;;;5.20;1.33;;;;;;;;;;4996360;28;92526;-75
2023/04/25 11:40:43;;;;;;;8.32;1.73;;;;;;;;;;5002354;28;92249;-77
2023/04/25 11:43:09;;;;;;;9.60;1.55;;;;;;;;;;5000041;28;94226;-74
2023/04/25 11:45:36;;;;;;;10.95;1.90;;;;;;;;;;4984794;28;94541;-75
2023/04/25 11:48:03;;;;;;;5.78;1.50;;;;;;;;;;4995623;28;92617;-75
2023/04/25 11:50:30;;;;;;;6.65;1.70;;;;;;;;;;4975740;28;94816;-76
2023/04/25 11:52:56;;;;;;;4.95;1.00;;;;;;;;;;4976783;28;94465;-76
2023/04/25 11:55:23;;;;;;;2.33;0.85;;;;;;;;;;4975094;28;92910;-77
2023/04/25 11:57:50;;;;;;;6.35;1.80;;;;;;;;;;4981820;28;93075;-73
2023/04/25 12:00:18;;;;;;;6.15;1.20;;;;;;;;;;4989282;28;94337;-76
2023/04/25 12:02:45;;;;;;;6.03;1.35;;;;;;;;;;4983466;28;92500;-75
2023/04/25 12:05:12;;;;;;;6.10;1.17;;;;;;;;;;4978753;28;92541;-77
2023/04/25 12:07:57;;;;;;;4.60;1.15;;;;;;;;;;4975370;28;91969;-77
2023/04/25 12:10:24;;;;;;;5.78;1.13;;;;;;;;;;4965285;28;92425;-76
2023/04/25 12:12:50;;;;;;;11.15;1.23;;;;;;;;;;4974789;28;93469;-77
2023/04/25 12:15:21;;;;;;;5.78;1.60;;;;;;;;;;4972907;28;95642;-77
2023/04/25 12:17:48;;;;;;;9.77;1.23;;;;;;;;;;4970689;28;95513;-77
2023/04/25 12:20:15;;;;;;;5.10;1.15;;;;;;;;;;4975944;28;93851;-77
2023/04/25 12:22:45;;;;;;;3.60;1.27;;;;;;;;;;4957972;28;92487;-77
2023/04/25 12:25:32;;;;;;;6.70;1.10;;;;;;;;;;4977027;28;93947;-75
2023/04/25 12:28:20;;;;;;;4.65;1.10;;;;;;;;;;4955293;28;92415;-77
2023/04/25 12:30:56;;;;;;;10.63;1.48;;;;;;;;;;4965917;28;94094;-78
2023/04/25 12:33:22;;;;;;;4.30;1.10;;;;;;;;;;4975248;28;92666;-77
2023/04/25 12:35:49;;;;;;;7.78;1.23;;;;;;;;;;4967476;28;92452;-76
2023/04/25 12:38:25;;;;;;;4.00;1.02;;;;;;;;;;4974773;28;93179;-77
2023/04/25 12:40:52;;;;;;;4.25;1.23;;;;;;;;;;4972198;28;95784;-76
2023/04/25 12:43:18;;;;;;;3.95;1.10;;;;;;;;;;4973200;28;94062;-77
2023/04/25 12:45:47;;;;;;;6.25;1.15;;;;;;;;;;4975384;28;94180;-77
2023/04/25 12:48:13;;;;;;;7.00;1.00;;;;;;;;;;4981031;28;92459;-78
2023/04/25 12:50:40;;;;;;;6.18;1.73;;;;;;;;;;4970553;28;94011;-76
2023/04/25 12:53:07;;;;;;;9.60;2.13;;;;;;;;;;4959466;28;93375;-77
2023/04/25 12:55:33;;;;;;;7.50;1.20;;;;;;;;;;4955186;28;92633;-77
2023/04/25 12:58:00;;;;;;;3.40;1.02;;;;;;;;;;4955682;28;94313;-78
2023/04/25 13:00:26;;;;;;;5.97;1.42;;;;;;;;;;4955381;28;93090;-74
2023/04/25 13:02:52;;;;;;;5.70;1.55;;;;;;;;;;4972060;28;92419;-74
2023/04/25 13:05:19;;;;;;;6.68;1.25;;;;;;;;;;4971266;28;95257;-75
2023/04/25 13:07:45;;;;;;;6.70;1.50;;;;;;;;;;4977340;28;94576;-75
2023/04/25 13:10:12;;;;;;;6.75;1.02;;;;;;;;;;4973417;28;94200;-76
2023/04/25 13:12:38;;;;;;;7.53;1.30;;;;;;;;;;4969366;28;93437;-76
2023/04/25 13:15:04;;;;;;;5.55;1.05;;;;;;;;;;4972112;28;92564;-76
2023/04/25 13:17:31;;;;;;;7.22;1.17;;;;;;;;;;4964551;28;93095;-73
2023/04/25 13:19:57;;;;;;;4.47;1.45;;;;;;;;;;4955199;28;93717;-76
2023/04/25 13:22:23;;;;;;;9.40;1.55;;;;;;;;;;4971749;28;91699;-76
2023/04/25 13:24:50;;;;;;;6.97;1.27;;;;;;;;;;4972741;28;92607;-76
2023/04/25 13:27:16;;;;;;;4.50;1.00;;;;;;;;;;4968826;28;93403;-77
2023/04/25 13:29:42;;;;;;;9.75;1.13;;;;;;;;;;4966597;28;95165;-77
2023/04/25 13:32:09;;;;;;;3.38;1.10;;;;;;;;;;4967249;28;94583;-76
2023/04/25 13:34:35;;;;;;;6.88;0.80;;;;;;;;;;4975280;28;92440;-76
2023/04/25 13:37:01;;;;;;;6.13;1.27;;;;;;;;;;4959667;28;94145;-76
2023/04/25 13:39:28;;;;;;;4.75;0.93;;;;;;;;;;4967697;28;94357;-77
2023/04/25 13:41:54;;;;;;;3.33;1.10;;;;;;;;;;4972030;28;92599;-75
2023/04/25 13:44:20;;;;;;;7.70;1.23;;;;;;;;;;4976745;28;93211;-76
2023/04/25 13:46:47;;;;;;;7.30;1.08;;;;;;;;;;4977048;28;93687;-75
2023/04/25 13:49:13;;;;;;;6.97;1.35;;;;;;;;;;4973538;28;92440;-78
2023/04/25 13:51:40;;;;;;;6.28;1.30;;;;;;;;;;4975025;28;94164;-77
2023/04/25 13:54:07;;;;;;;2.08;0.93;;;;;;;;;;4974622;28;95043;-77
2023/04/25 13:56:33;;;;;;;9.20;0.98;;;;;;;;;;4971284;28;96654;-77
2023/04/25 13:59:00;;;;;;;8.00;1.45;;;;;;;;;;4974854;28;93736;-77
2023/04/25 14:01:27;;;;;;;11.38;1.00;;;;;;;;;;4976000;28;92393;-78
2023/04/25 14:03:57;;;;;;;9.32;1.50;;;;;;;;;;4975830;28;94175;-77
2023/04/25 14:06:23;;;;;;;5.65;1.15;;;;;;;;;;4976294;28;93849;-76
2023/04/25 14:08:50;;;;;;;5.05;1.33;;;;;;;;;;4977157;28;92617;-78
2023/04/25 14:11:18;;;;;;;7.57;1.17;;;;;;;;;;4977770;28;95564;-77
2023/04/25 14:13:44;;;;;;;4.75;1.83;;;;;;;;;;4978667;28;93433;-77
2023/04/25 14:16:11;;;;;;;5.75;1.35;;;;;;;;;;4977010;28;93270;-77
2023/04/25 14:18:37;;;;;;;12.35;1.55;;;;;;;;;;4973597;28;97132;-77
2023/04/25 14:21:04;;;;;;;8.98;1.50;;;;;;;;;;4976490;28;92431;-77
2023/04/25 14:23:30;;;;;;;9.25;1.58;;;;;;;;;;4976738;28;93961;-76
2023/04/25 14:25:57;;;;;;;7.47;1.55;;;;;;;;;;4965109;28;93262;-76
2023/04/25 14:28:23;;;;;;;11.60;1.80;;;;;;;;;;4962623;28;94338;-77
2023/04/25 14:30:49;;;;;;;9.80;1.40;;;;;;;;;;4971409;28;93226;-77
2023/04/25 14:33:16;;;;;;;8.30;1.60;;;;;;;;;;4965161;28;93414;-77
2023/04/25 14:35:42;;;;;;;7.93;1.35;;;;;;;;;;4967763;28;91903;-77